Charlemagne, Canada
Current Conditions -  °F | °C
As of 8:22 AM on Friday 28 Nov 2014 (Local Time) from CYHU Reporting Station
Light Snow Light Snow  
Wind Chill: 13°   Ceiling: 1700
Heat Index: 21°   Visibility: 3mi
Dew Point: 18°   Wind: 7mph
Humidity: 86%   Direction: 20°NNE
Pressure: 30.09"   Gusts: NA
Location:  45.72°N, 73.48°W
Report Text: CYHU 281322Z AUTO 02006KT 3SM -SN OVC017 M06/M08 A3009 RMK VIS VRB 2-3 SLP192
Loading
Personal Weather Stations






























Interactive Weather Map New forecast layout! Learn more

10-Day Weather Forecast

Advertisements
Track Severe Weather on mobile